createdAt,value
2022-09-25T00:02:59.548Z,14.57
2022-09-25T00:06:05.230Z,14.54
2022-09-25T00:09:10.182Z,14.53
2022-09-25T00:12:13.407Z,14.51
2022-09-25T00:15:16.501Z,14.51
2022-09-25T00:18:42.345Z,14.50
2022-09-25T00:21:44.750Z,14.51
2022-09-25T00:24:47.689Z,14.50
2022-09-25T00:27:54.656Z,14.46
2022-09-25T00:30:57.449Z,14.49
2022-09-25T00:34:03.592Z,14.47
2022-09-25T00:37:07.432Z,14.48
2022-09-25T00:40:11.284Z,14.49
2022-09-25T00:43:15.908Z,14.46
2022-09-25T00:46:23.832Z,14.45
2022-09-25T00:49:28.304Z,14.44
2022-09-25T00:52:32.884Z,14.43
2022-09-25T00:55:39.851Z,14.44
2022-09-25T00:58:43.331Z,14.39
2022-09-25T01:01:46.877Z,14.47
2022-09-25T01:04:52.591Z,14.47
2022-09-25T01:07:58.433Z,14.42
2022-09-25T01:11:02.106Z,14.48
2022-09-25T01:14:07.168Z,14.48
2022-09-25T01:17:19.294Z,14.47
2022-09-25T01:20:39.562Z,14.47
2022-09-25T01:24:21.174Z,14.46
2022-09-25T01:27:35.362Z,14.47
2022-09-25T01:30:43.773Z,14.47
2022-09-25T01:33:51.723Z,14.43
2022-09-25T01:36:59.905Z,14.48
2022-09-25T01:40:09.180Z,14.41
2022-09-25T01:43:16.801Z,14.47
2022-09-25T01:46:23.183Z,14.49
2022-09-25T01:49:31.803Z,14.48
2022-09-25T01:52:40.097Z,14.44
2022-09-25T01:55:49.097Z,14.41
2022-09-25T01:58:56.588Z,14.37
2022-09-25T02:02:04.480Z,14.36
2022-09-25T02:05:13.413Z,14.32
2022-09-25T02:08:22.162Z,14.32
2022-09-25T02:11:30.929Z,14.34
2022-09-25T02:14:36.944Z,14.37
2022-09-25T02:18:03.705Z,14.40
2022-09-25T02:21:15.375Z,14.42
2022-09-25T02:24:21.933Z,14.46
2022-09-25T02:27:27.873Z,14.48
2022-09-25T02:30:31.041Z,14.51
2022-09-25T02:33:35.949Z,14.51
2022-09-25T02:36:38.723Z,14.54
2022-09-25T02:39:43.404Z,14.56
2022-09-25T02:42:51.466Z,14.52
2022-09-25T02:46:05.490Z,14.53
2022-09-25T02:49:23.551Z,14.51
2022-09-25T02:52:35.279Z,14.51
2022-09-25T02:55:41.735Z,14.51
2022-09-25T02:58:51.179Z,14.51
2022-09-25T03:01:55.195Z,14.51
2022-09-25T03:05:01.927Z,14.51
2022-09-25T03:08:23.152Z,14.47
2022-09-25T03:11:27.784Z,14.50
2022-09-25T03:14:30.730Z,14.52
2022-09-25T03:17:33.790Z,14.54
2022-09-25T03:20:38.556Z,14.53
2022-09-25T03:23:41.650Z,14.53
2022-09-25T03:26:44.991Z,14.51
2022-09-25T03:29:48.672Z,14.51
2022-09-25T03:32:51.701Z,14.52
2022-09-25T03:36:08.158Z,14.48
2022-09-25T03:39:11.230Z,14.53
2022-09-25T03:42:14.842Z,14.52
2022-09-25T03:45:17.969Z,14.52
2022-09-25T03:48:21.411Z,14.53
2022-09-25T03:51:27.340Z,14.55
2022-09-25T03:54:30.349Z,14.54
2022-09-25T03:57:33.793Z,14.54
2022-09-25T04:00:36.806Z,14.55
2022-09-25T04:03:40.357Z,14.57
2022-09-25T04:06:44.751Z,14.58
2022-09-25T04:09:47.671Z,14.58
2022-09-25T04:12:55.514Z,14.58
2022-09-25T04:15:59.520Z,14.54
2022-09-25T04:19:02.479Z,14.53
2022-09-25T04:22:06.835Z,14.54
2022-09-25T04:25:10.610Z,14.54
2022-09-25T04:28:13.883Z,14.55
2022-09-25T04:31:16.879Z,14.56
2022-09-25T04:34:18.834Z,14.57
2022-09-25T04:37:26.512Z,14.57
2022-09-25T04:40:29.743Z,14.58
2022-09-25T04:43:34.164Z,14.55
2022-09-25T04:46:36.894Z,14.56
2022-09-25T04:49:39.638Z,14.54
2022-09-25T04:52:43.952Z,14.53
2022-09-25T04:55:48.096Z,14.57
2022-09-25T04:58:50.802Z,14.53
2022-09-25T05:01:54.215Z,14.45
2022-09-25T05:04:56.994Z,14.41
2022-09-25T05:08:02.924Z,14.40
2022-09-25T05:11:05.813Z,14.35
2022-09-25T05:14:09.389Z,14.31
2022-09-25T05:17:12.592Z,14.29
2022-09-25T05:20:15.684Z,14.31
2022-09-25T05:23:19.799Z,14.33
2022-09-25T05:26:22.752Z,14.34
2022-09-25T05:29:25.571Z,14.38
2022-09-25T05:32:28.647Z,14.41
2022-09-25T05:35:33.165Z,14.41
2022-09-25T05:38:39.541Z,14.45
2022-09-25T05:41:42.234Z,14.48
2022-09-25T05:44:44.863Z,14.44
2022-09-25T05:47:48.163Z,14.47
2022-09-25T05:50:52.738Z,14.49
2022-09-25T05:53:56.808Z,14.49
2022-09-25T05:56:59.769Z,14.48
2022-09-25T06:00:03.146Z,14.46
2022-09-25T06:03:06.555Z,14.40
2022-09-25T06:06:09.771Z,14.38
2022-09-25T06:09:13.738Z,14.39
2022-09-25T06:12:16.679Z,14.41
2022-09-25T06:15:19.358Z,14.43
2022-09-25T06:18:24.259Z,14.42
2022-09-25T06:21:27.270Z,14.50
2022-09-25T06:24:31.617Z,14.53
2022-09-25T06:27:34.849Z,14.57
2022-09-25T06:30:38.700Z,14.61
2022-09-25T06:33:42.266Z,14.62
2022-09-25T06:36:45.187Z,14.64
2022-09-25T06:39:49.195Z,14.66
2022-09-25T06:42:56.955Z,14.67
2022-09-25T06:46:04.003Z,14.69
2022-09-25T06:49:07.234Z,14.69
2022-09-25T06:52:10.280Z,14.70
2022-09-25T06:55:14.883Z,14.74
2022-09-25T06:58:20.682Z,14.76
2022-09-25T07:01:23.356Z,14.79
2022-09-25T07:04:26.425Z,14.79
2022-09-25T07:07:30.076Z,14.82
2022-09-25T07:10:34.017Z,14.83
2022-09-25T07:13:37.900Z,14.82
2022-09-25T07:16:40.561Z,14.81
2022-09-25T07:19:43.621Z,14.79
2022-09-25T07:22:46.206Z,14.79
2022-09-25T07:25:50.929Z,14.77
2022-09-25T07:28:56.169Z,14.76
2022-09-25T07:32:00.281Z,14.78
2022-09-25T07:35:03.153Z,14.85
2022-09-25T07:38:06.275Z,14.93
2022-09-25T07:41:13.454Z,15.01
2022-09-25T07:44:37.937Z,15.11
2022-09-25T07:47:39.583Z,15.21
2022-09-25T07:50:42.556Z,15.28
2022-09-25T07:53:46.171Z,15.32
2022-09-25T07:56:50.414Z,15.27
2022-09-25T07:59:53.457Z,15.33
2022-09-25T08:02:58.003Z,15.38
2022-09-25T08:06:02.652Z,15.37
2022-09-25T08:09:10.108Z,15.48
2022-09-25T08:12:15.555Z,15.51
2022-09-25T08:15:18.539Z,15.60
2022-09-25T08:18:21.700Z,15.62
2022-09-25T08:21:24.387Z,15.63
2022-09-25T08:24:27.466Z,15.67
2022-09-25T08:27:32.012Z,15.74
2022-09-25T08:30:35.161Z,15.74
2022-09-25T08:33:38.146Z,15.74
2022-09-25T08:36:40.822Z,15.72
2022-09-25T08:39:43.970Z,15.70
2022-09-25T08:42:51.653Z,15.75
2022-09-25T08:46:13.975Z,15.82
2022-09-25T08:49:20.500Z,15.87
2022-09-25T08:52:23.417Z,15.87
2022-09-25T08:55:50.053Z,15.87
2022-09-25T08:59:02.524Z,15.90
2022-09-25T09:02:13.854Z,15.95
2022-09-25T09:05:21.569Z,16.00
2022-09-25T09:08:29.131Z,16.15
2022-09-25T09:11:37.580Z,16.35
2022-09-25T09:14:46.113Z,16.52
2022-09-25T09:17:48.848Z,16.65
2022-09-25T09:20:54.714Z,16.61
2022-09-25T09:24:06.214Z,16.62
2022-09-25T09:27:23.349Z,16.68
2022-09-25T09:30:36.690Z,16.76
2022-09-25T09:33:52.371Z,16.77
2022-09-25T09:37:02.197Z,16.77
2022-09-25T09:40:19.974Z,16.72
2022-09-25T09:43:37.010Z,16.70
2022-09-25T09:46:50.005Z,16.73
2022-09-25T09:49:59.004Z,16.80
2022-09-25T09:53:04.743Z,16.96
2022-09-25T09:56:14.850Z,16.95
2022-09-25T09:59:22.936Z,16.86
2022-09-25T10:02:34.502Z,16.84
2022-09-25T10:05:40.664Z,16.72
2022-09-25T10:08:43.797Z,16.74
2022-09-25T10:11:50.429Z,16.66
2022-09-25T10:14:53.479Z,16.60
2022-09-25T10:18:00.763Z,16.54
2022-09-25T10:21:11.077Z,16.51
2022-09-25T10:24:49.781Z,16.58
2022-09-25T10:27:52.865Z,16.63
2022-09-25T10:30:56.958Z,16.66
2022-09-25T10:34:04.313Z,16.71
2022-09-25T10:37:20.211Z,16.77
2022-09-25T10:40:28.155Z,16.86
2022-09-25T10:43:30.936Z,16.91
2022-09-25T10:46:53.400Z,16.92
2022-09-25T10:50:13.540Z,16.89
2022-09-25T10:53:30.997Z,16.88
2022-09-25T10:56:39.101Z,16.85
2022-09-25T10:59:48.879Z,16.75
2022-09-25T11:02:56.698Z,16.71
2022-09-25T11:06:05.632Z,16.63
2022-09-25T11:09:14.406Z,16.52
2022-09-25T11:12:23.751Z,16.40
2022-09-25T11:15:28.720Z,16.30
2022-09-25T11:18:40.939Z,16.24
2022-09-25T11:21:59.911Z,16.23
2022-09-25T11:25:12.565Z,16.47
2022-09-25T11:28:28.908Z,16.59
2022-09-25T11:31:38.027Z,16.73
2022-09-25T11:35:06.030Z,16.81
2022-09-25T11:38:43.702Z,16.90
2022-09-25T11:41:49.431Z,16.97
2022-09-25T11:44:59.350Z,16.97
2022-09-25T11:48:07.866Z,16.93
2022-09-25T11:51:19.874Z,17.00
2022-09-25T11:54:36.717Z,17.00
2022-09-25T11:57:49.620Z,17.01
2022-09-25T12:01:01.266Z,17.05
2022-09-25T12:04:30.225Z,17.12
2022-09-25T12:07:47.578Z,17.27
2022-09-25T12:11:01.814Z,17.35
2022-09-25T12:14:14.093Z,17.34
2022-09-25T12:17:24.037Z,17.36
2022-09-25T12:20:33.815Z,17.39
2022-09-25T12:23:44.855Z,17.35
2022-09-25T12:26:57.337Z,17.20
2022-09-25T12:30:12.235Z,17.10
2022-09-25T12:33:32.634Z,16.97
2022-09-25T12:36:41.570Z,16.96
2022-09-25T12:39:51.707Z,17.06
2022-09-25T12:43:03.169Z,17.28
2022-09-25T12:46:12.284Z,17.27
2022-09-25T12:49:21.424Z,17.43
2022-09-25T12:52:29.701Z,17.52
2022-09-25T12:55:39.209Z,17.60
2022-09-25T12:58:57.664Z,17.63
2022-09-25T13:02:06.200Z,17.71
2022-09-25T13:05:18.144Z,17.78
2022-09-25T13:08:28.763Z,17.91
2022-09-25T13:11:39.635Z,18.03
2022-09-25T13:14:52.459Z,18.11
2022-09-25T13:17:55.968Z,18.18
2022-09-25T13:21:00.908Z,18.22
2022-09-25T13:24:09.410Z,18.28
2022-09-25T13:27:19.122Z,18.24
2022-09-25T13:30:26.532Z,18.08
2022-09-25T13:33:30.105Z,18.08
2022-09-25T13:36:40.632Z,17.96
2022-09-25T13:40:05.083Z,17.81
2022-09-25T13:43:20.963Z,17.72
2022-09-25T13:46:25.804Z,17.71
2022-09-25T13:49:35.746Z,17.73
2022-09-25T13:53:16.086Z,17.76
2022-09-25T13:56:28.093Z,17.77
2022-09-25T13:59:39.393Z,17.67
2022-09-25T14:02:47.640Z,17.42
2022-09-25T14:05:50.747Z,17.22
2022-09-25T14:08:56.836Z,16.99
2022-09-25T14:12:08.458Z,16.76
2022-09-25T14:15:21.925Z,16.44
2022-09-25T14:18:37.373Z,16.33
2022-09-25T14:21:40.373Z,16.40
2022-09-25T14:24:45.597Z,16.48
2022-09-25T14:27:52.760Z,16.61
2022-09-25T14:31:08.212Z,16.68
2022-09-25T14:34:53.271Z,16.73
2022-09-25T14:38:20.488Z,16.77
2022-09-25T14:41:44.306Z,16.91
2022-09-25T14:45:14.397Z,17.00
2022-09-25T14:48:20.218Z,17.05
2022-09-25T14:51:27.680Z,16.83
2022-09-25T14:54:36.494Z,16.68
2022-09-25T14:57:39.841Z,16.63
2022-09-25T15:00:47.724Z,16.54
2022-09-25T15:03:51.215Z,16.37
2022-09-25T15:07:02.651Z,16.23
2022-09-25T15:10:28.621Z,16.08
2022-09-25T15:13:34.462Z,15.97
2022-09-25T15:16:56.989Z,15.83
2022-09-25T15:20:02.497Z,15.74
2022-09-25T15:23:10.386Z,15.66
2022-09-25T15:26:18.649Z,15.55
2022-09-25T15:29:23.839Z,15.51
2022-09-25T15:32:28.547Z,15.37
2022-09-25T15:35:32.631Z,15.33
2022-09-25T15:38:39.895Z,15.27
2022-09-25T15:41:44.501Z,15.32
2022-09-25T15:44:47.815Z,15.30
2022-09-25T15:47:54.972Z,15.26
2022-09-25T15:51:00.160Z,15.21
2022-09-25T15:54:06.435Z,15.21
2022-09-25T15:57:13.382Z,15.18
2022-09-25T16:00:39.624Z,15.14
2022-09-25T16:04:06.961Z,15.11
2022-09-25T16:07:28.306Z,15.08
2022-09-25T16:10:34.466Z,15.07
2022-09-25T16:13:40.514Z,15.07
2022-09-25T16:16:49.846Z,15.03
2022-09-25T16:20:05.172Z,14.91
2022-09-25T16:23:22.933Z,14.91
2022-09-25T16:26:31.322Z,14.83
2022-09-25T16:29:39.117Z,14.87
2022-09-25T16:32:47.201Z,14.81
2022-09-25T16:36:10.613Z,14.82
2022-09-25T16:39:23.085Z,14.80
2022-09-25T16:42:39.547Z,14.75
2022-09-25T16:45:59.008Z,14.80
2022-09-25T16:49:04.806Z,14.81
2022-09-25T16:52:08.921Z,14.73
2022-09-25T16:55:21.423Z,14.67
2022-09-25T16:58:25.624Z,14.41
2022-09-25T17:01:29.488Z,14.33
2022-09-25T17:04:35.972Z,14.21
2022-09-25T17:07:38.668Z,14.19
2022-09-25T17:10:41.919Z,14.12
2022-09-25T17:13:46.743Z,14.11
2022-09-25T17:16:49.538Z,14.12
2022-09-25T17:19:52.253Z,14.19
2022-09-25T17:22:55.874Z,14.14
2022-09-25T17:26:03.708Z,14.16
2022-09-25T17:29:07.964Z,14.12
2022-09-25T17:32:14.090Z,14.14
2022-09-25T17:35:29.766Z,14.17
2022-09-25T17:38:34.042Z,14.25
2022-09-25T17:41:38.373Z,14.23
2022-09-25T17:44:43.797Z,14.27
2022-09-25T17:47:46.622Z,14.28
2022-09-25T17:50:49.295Z,14.34
2022-09-25T17:53:53.935Z,14.37
2022-09-25T17:56:57.039Z,14.40
2022-09-25T18:00:01.671Z,14.41
2022-09-25T18:03:04.549Z,14.42
2022-09-25T18:06:07.426Z,14.45
2022-09-25T18:09:10.211Z,14.37
2022-09-25T18:12:12.943Z,14.43
2022-09-25T18:15:18.411Z,14.37
2022-09-25T18:18:21.594Z,14.26
2022-09-25T18:21:41.724Z,14.22
2022-09-25T18:24:45.032Z,14.21
2022-09-25T18:27:48.099Z,14.18
2022-09-25T18:30:52.548Z,14.18
2022-09-25T18:33:56.097Z,14.10
2022-09-25T18:36:58.898Z,14.09
2022-09-25T18:40:02.219Z,14.08
2022-09-25T18:43:04.903Z,14.06
2022-09-25T18:46:09.530Z,14.05
2022-09-25T18:49:12.610Z,14.04
2022-09-25T18:52:15.782Z,13.99
2022-09-25T18:55:18.607Z,13.98
2022-09-25T18:58:21.578Z,14.00
2022-09-25T19:01:26.071Z,13.99
2022-09-25T19:04:28.945Z,13.99
2022-09-25T19:07:32.050Z,13.95
2022-09-25T19:10:35.259Z,13.93
2022-09-25T19:13:38.235Z,13.94
2022-09-25T19:16:42.633Z,13.94
2022-09-25T19:19:45.759Z,13.88
2022-09-25T19:22:48.632Z,13.89
2022-09-25T19:25:55.793Z,13.86
2022-09-25T19:28:58.483Z,13.87
2022-09-25T19:32:03.932Z,13.84
2022-09-25T19:35:07.303Z,13.82
2022-09-25T19:38:12.760Z,13.77
2022-09-25T19:41:17.888Z,13.76
2022-09-25T19:44:21.220Z,13.68
2022-09-25T19:47:25.235Z,13.68
2022-09-25T19:50:28.145Z,13.72
2022-09-25T19:53:31.361Z,13.70
2022-09-25T19:56:34.382Z,13.65
2022-09-25T19:59:37.394Z,13.61
2022-09-25T20:02:46.105Z,13.54
2022-09-25T20:05:49.652Z,13.63
2022-09-25T20:08:57.453Z,13.60
2022-09-25T20:12:00.578Z,13.64
2022-09-25T20:15:03.626Z,13.67
2022-09-25T20:18:07.868Z,13.64
2022-09-25T20:21:11.170Z,13.65
2022-09-25T20:24:14.077Z,13.65
2022-09-25T20:27:21.000Z,13.65
2022-09-25T20:30:25.711Z,13.66
2022-09-25T20:33:34.694Z,13.66
2022-09-25T20:36:39.147Z,13.66
2022-09-25T20:39:41.891Z,13.66
2022-09-25T20:42:44.634Z,13.66
2022-09-25T20:45:57.101Z,13.64
2022-09-25T20:49:02.085Z,13.61
2022-09-25T20:52:05.155Z,13.62
2022-09-25T20:55:08.487Z,13.60
2022-09-25T20:58:11.648Z,13.58
2022-09-25T21:01:17.510Z,13.56
2022-09-25T21:04:21.634Z,13.54
2022-09-25T21:07:26.392Z,13.54
2022-09-25T21:10:29.590Z,13.52
2022-09-25T21:13:34.010Z,13.52
2022-09-25T21:16:37.037Z,13.53
2022-09-25T21:19:41.529Z,13.52
2022-09-25T21:22:44.263Z,13.51
2022-09-25T21:25:46.977Z,13.51
2022-09-25T21:28:52.532Z,13.49
2022-09-25T21:31:55.701Z,13.48
2022-09-25T21:35:00.069Z,13.46
2022-09-25T21:38:03.975Z,13.45
2022-09-25T21:41:09.352Z,13.44
2022-09-25T21:44:14.848Z,13.42
2022-09-25T21:47:17.995Z,13.36
2022-09-25T21:50:22.048Z,13.32
2022-09-25T21:53:26.122Z,13.27
2022-09-25T21:56:31.500Z,13.19
2022-09-25T21:59:34.536Z,13.09
2022-09-25T22:02:38.500Z,12.96
2022-09-25T22:05:42.615Z,12.88
2022-09-25T22:08:47.740Z,12.63
2022-09-25T22:11:51.484Z,12.60
2022-09-25T22:14:54.440Z,12.49
2022-09-25T22:17:57.107Z,12.38
2022-09-25T22:21:01.775Z,12.31
2022-09-25T22:24:04.976Z,12.25
2022-09-25T22:27:07.754Z,12.17
2022-09-25T22:30:11.851Z,12.16
2022-09-25T22:33:14.846Z,12.15
2022-09-25T22:36:19.217Z,12.10
2022-09-25T22:39:22.330Z,12.04
2022-09-25T22:42:25.251Z,11.97
2022-09-25T22:45:28.188Z,11.90
2022-09-25T22:48:31.557Z,11.84
2022-09-25T22:51:36.062Z,11.80
2022-09-25T22:54:39.010Z,11.74
2022-09-25T22:57:41.714Z,11.70
2022-09-25T23:00:45.107Z,11.65
2022-09-25T23:03:48.234Z,11.59
2022-09-25T23:06:52.904Z,11.55
2022-09-25T23:09:55.797Z,11.52
2022-09-25T23:12:58.838Z,11.46
2022-09-25T23:16:05.713Z,11.42
2022-09-25T23:19:08.441Z,11.37
2022-09-25T23:22:12.563Z,11.27
2022-09-25T23:25:15.796Z,11.20
2022-09-25T23:28:18.607Z,11.17
2022-09-25T23:31:22.372Z,11.12
2022-09-25T23:34:25.634Z,11.05
2022-09-25T23:37:30.511Z,11.00
2022-09-25T23:40:33.319Z,10.95
2022-09-25T23:43:35.991Z,10.91
2022-09-25T23:46:40.882Z,10.86
2022-09-25T23:49:44.444Z,10.77
2022-09-25T23:52:48.489Z,10.74
2022-09-25T23:55:51.660Z,10.68
2022-09-25T23:58:56.170Z,10.62
